Time;durP1;ratioP1;P1;durP2;ratioP2;P2;SDS_P1;SDS_P2;PMS_P1;PMS_P2;Temp;Humidity;BMP_temperature;BMP_pressure;BME280_temperature;BME280_humidity;BME280_pressure;Samples;Min_cycle;Max_cycle;Signal;HPM_P1;HPM_P2
2022/07/19 00:00:37;;;;;;;;;;;;;;;16.67;51.72;101139.11;1688758;83;21872;-73
2022/07/19 00:03:05;;;;;;;;;;;;;;;16.71;51.79;101132.83;1687434;84;20185;-73
2022/07/19 00:05:31;;;;;;;;;;;;;;;16.74;51.85;101133.78;1683021;84;20195;-73
2022/07/19 00:07:56;;;;;;;;;;;;;;;16.78;51.93;101129.69;1694765;84;20174;-73
2022/07/19 00:10:22;;;;;;;;;;;;;;;16.81;51.97;101126.60;1693115;84;20860;-73
2022/07/19 00:12:48;;;;;;;;;;;;;;;16.85;52.02;101129.23;1693829;84;21121;-73
2022/07/19 00:15:15;;;;;;;;;;;;;;;16.88;52.10;101128.34;1695181;84;20196;-73
2022/07/19 00:17:42;;;;;;;;;;;;;;;16.94;52.14;101127.55;1693699;84;20162;-73
2022/07/19 00:20:10;;;;;;;;;;;;;;;16.98;52.20;101123.96;1688199;84;20145;-73
2022/07/19 00:22:36;;;;;;;;;;;;;;;17.02;52.28;101126.59;1697462;84;20157;-73
2022/07/19 00:25:02;;;;;;;;;;;;;;;17.04;52.32;101128.56;1695622;84;21989;-73
2022/07/19 00:27:28;;;;;;;;;;;;;;;17.07;52.40;101129.52;1694340;84;20462;-73
2022/07/19 00:29:54;;;;;;;;;;;;;;;17.09;52.47;101126.14;1696244;84;20219;-73
2022/07/19 00:32:20;;;;;;;;;;;;;;;17.12;52.52;101131.14;1692943;84;20716;-73
2022/07/19 00:34:46;;;;;;;;;;;;;;;17.13;52.58;101130.11;1686500;84;20499;-73
2022/07/19 00:37:12;;;;;;;;;;;;;;;17.15;52.64;101122.66;1690168;84;21176;-73
2022/07/19 00:39:38;;;;;;;;;;;;;;;17.18;52.67;101118.22;1688618;84;20204;-73
2022/07/19 00:42:04;;;;;;;;;;;;;;;17.22;52.68;101111.92;1693328;84;20199;-73
2022/07/19 00:44:30;;;;;;;;;;;;;;;17.26;52.71;101114.04;1691521;84;20225;-73
2022/07/19 00:46:56;;;;;;;;;;;;;;;17.28;52.76;101109.27;1696521;84;20169;-73
2022/07/19 00:49:22;;;;;;;;;;;;;;;17.32;52.76;101109.20;1699996;84;20734;-73
2022/07/19 00:51:48;;;;;;;;;;;;;;;17.36;52.81;101107.78;1689156;84;20176;-73
2022/07/19 00:54:14;;;;;;;;;;;;;;;17.40;52.83;101111.75;1697755;83;20177;-73
2022/07/19 00:56:40;;;;;;;;;;;;;;;17.44;52.84;101115.73;1696960;84;20990;-73
2022/07/19 00:59:06;;;;;;;;;;;;;;;17.48;52.84;101117.01;1698283;84;20173;-73
2022/07/19 01:01:32;;;;;;;;;;;;;;;17.52;52.83;101108.52;1717959;83;21763;-73
2022/07/19 01:03:58;;;;;;;;;;;;;;;17.56;52.85;101115.19;1674375;84;20313;-73
2022/07/19 01:06:24;;;;;;;;;;;;;;;17.59;52.85;101116.97;1655679;86;20222;-73
2022/07/19 01:08:50;;;;;;;;;;;;;;;17.62;52.84;101112.56;1647360;86;20204;-73
2022/07/19 01:11:15;;;;;;;;;;;;;;;17.68;52.82;101114.97;1656977;86;20296;-73
2022/07/19 01:13:41;;;;;;;;;;;;;;;17.74;52.74;101110.11;1656759;86;21098;-73
2022/07/19 01:16:07;;;;;;;;;;;;;;;17.79;52.69;101105.80;1659090;86;20198;-73
2022/07/19 01:18:33;;;;;;;;;;;;;;;17.87;52.65;101107.52;1659416;86;20209;-73
2022/07/19 01:20:59;;;;;;;;;;;;;;;17.89;52.60;101102.73;1653328;86;20190;-73
2022/07/19 01:23:25;;;;;;;;;;;;;;;18.00;52.44;101099.47;1658833;86;20214;-73
2022/07/19 01:25:51;;;;;;;;;;;;;;;18.14;52.25;101098.48;1652863;86;20832;-73
2022/07/19 01:28:17;;;;;;;;;;;;;;;18.26;52.02;101090.64;1653190;86;20158;-74
2022/07/19 01:30:42;;;;;;;;;;;;;;;18.38;51.78;101097.94;1645634;86;20198;-74
2022/07/19 01:33:08;;;;;;;;;;;;;;;18.46;51.59;101095.06;1655746;86;20166;-74
2022/07/19 01:35:34;;;;;;;;;;;;;;;18.57;51.42;101096.36;1658991;86;20317;-73
2022/07/19 01:38:00;;;;;;;;;;;;;;;18.71;51.20;101097.21;1661446;85;21192;-73
2022/07/19 01:40:26;;;;;;;;;;;;;;;18.84;50.94;101097.22;1659141;86;20202;-73
2022/07/19 01:42:52;;;;;;;;;;;;;;;18.95;50.71;101098.80;1658453;85;20358;-73
2022/07/19 01:45:18;;;;;;;;;;;;;;;19.07;50.46;101100.34;1659310;86;20616;-73
2022/07/19 01:47:44;;;;;;;;;;;;;;;19.09;50.25;101100.98;1657635;86;20849;-74
2022/07/19 01:50:17;;;;;;;;;;;;;;;19.11;50.05;101098.88;1650949;85;21112;-74
2022/07/19 01:52:43;;;;;;;;;;;;;;;19.08;49.91;101100.66;1658425;85;20782;-75
2022/07/19 01:55:09;;;;;;;;;;;;;;;19.01;49.84;101094.41;1641672;85;20236;-75
2022/07/19 01:57:35;;;;;;;;;;;;;;;19.00;49.75;101095.99;1659476;86;20166;-74
2022/07/19 02:00:01;;;;;;;;;;;;;;;18.97;49.65;101094.52;1657692;86;20266;-75
2022/07/19 02:02:27;;;;;;;;;;;;;;;18.92;49.60;101091.62;1657327;86;21858;-75
2022/07/19 02:04:53;;;;;;;;;;;;;;;18.86;49.58;101094.61;1667405;84;20184;-75
2022/07/19 02:07:19;;;;;;;;;;;;;;;18.80;49.59;101094.09;1694868;84;20231;-74
2022/07/19 02:09:45;;;;;;;;;;;;;;;18.73;49.60;101087.02;1718638;83;20180;-74
2022/07/19 02:12:11;;;;;;;;;;;;;;;18.66;49.64;101090.23;1692489;84;20172;-74
2022/07/19 02:14:36;;;;;;;;;;;;;;;18.61;49.67;101091.37;1718784;83;21044;-74
2022/07/19 02:17:02;;;;;;;;;;;;;;;18.57;49.68;101100.92;1696081;84;20299;-75
2022/07/19 02:19:28;;;;;;;;;;;;;;;18.52;49.73;101103.40;1705845;83;20786;-75
2022/07/19 02:21:54;;;;;;;;;;;;;;;18.46;49.73;101100.46;1688842;83;20153;-74
2022/07/19 02:24:20;;;;;;;;;;;;;;;18.42;49.73;101095.15;1706077;83;20234;-74
2022/07/19 02:26:46;;;;;;;;;;;;;;;18.39;49.76;101098.27;1703815;83;21040;-75
2022/07/19 02:29:12;;;;;;;;;;;;;;;18.32;49.78;101095.22;1710080;83;20183;-74
2022/07/19 02:31:38;;;;;;;;;;;;;;;18.27;49.81;101094.47;1708884;83;20759;-74
2022/07/19 02:34:04;;;;;;;;;;;;;;;18.19;49.88;101094.64;1727204;82;20278;-74
2022/07/19 02:36:29;;;;;;;;;;;;;;;18.14;49.93;101094.44;1722506;82;20178;-75
2022/07/19 02:38:56;;;;;;;;;;;;;;;18.08;49.96;101098.47;1723061;82;21187;-74
2022/07/19 02:41:22;;;;;;;;;;;;;;;17.98;50.05;101089.37;1701254;83;20516;-74
2022/07/19 02:43:47;;;;;;;;;;;;;;;17.89;50.14;101094.64;1706996;83;20163;-74
2022/07/19 02:46:13;;;;;;;;;;;;;;;17.81;50.23;101096.98;1716705;83;20167;-74
2022/07/19 02:48:39;;;;;;;;;;;;;;;17.75;50.27;101092.91;1707809;83;20293;-74
2022/07/19 02:51:11;;;;;;;;;;;;;;;17.68;50.34;101090.69;1718419;82;21191;-74
2022/07/19 02:53:37;;;;;;;;;;;;;;;17.61;50.42;101081.72;1719741;83;20152;-74
2022/07/19 02:56:04;;;;;;;;;;;;;;;17.54;50.46;101092.95;1716982;82;20555;-74
2022/07/19 02:58:29;;;;;;;;;;;;;;;17.49;50.50;101091.69;1719407;83;20153;-74
2022/07/19 03:00:55;;;;;;;;;;;;;;;17.43;50.55;101092.48;1719242;83;20179;-74
2022/07/19 03:06:06;;;;;;;;;;;;;;;17.32;50.71;101094.87;1714811;83;20614;-74
2022/07/19 03:08:32;;;;;;;;;;;;;;;17.25;50.78;101097.53;1711940;83;20207;-74
2022/07/19 03:10:57;;;;;;;;;;;;;;;17.19;50.86;101094.28;1711549;83;20427;-74
2022/07/19 03:13:23;;;;;;;;;;;;;;;17.15;50.95;101098.39;1705155;83;20158;-74
2022/07/19 03:15:49;;;;;;;;;;;;;;;17.10;51.00;101098.67;1710411;83;21135;-74
2022/07/19 03:18:15;;;;;;;;;;;;;;;17.05;51.05;101101.95;1706042;83;20266;-74
2022/07/19 03:20:41;;;;;;;;;;;;;;;17.00;51.11;101103.03;1698409;83;20184;-74
2022/07/19 03:23:07;;;;;;;;;;;;;;;16.97;51.14;101102.91;1706932;83;20254;-74
2022/07/19 03:25:33;;;;;;;;;;;;;;;16.94;51.18;101103.81;1711057;83;20187;-74
2022/07/19 03:27:59;;;;;;;;;;;;;;;16.93;51.21;101106.18;1703332;83;21195;-74
2022/07/19 03:30:25;;;;;;;;;;;;;;;16.90;51.25;101111.45;1709344;83;20468;-74
2022/07/19 03:32:51;;;;;;;;;;;;;;;16.90;51.30;101109.27;1709877;83;20183;-74
2022/07/19 03:35:17;;;;;;;;;;;;;;;16.94;51.31;101111.90;1713071;83;20231;-74
2022/07/19 03:37:43;;;;;;;;;;;;;;;17.01;51.32;101114.14;1712831;83;20223;-74
2022/07/19 03:40:10;;;;;;;;;;;;;;;17.10;51.27;101114.84;1711153;82;21141;-73
2022/07/19 03:42:36;;;;;;;;;;;;;;;17.19;51.25;101120.41;1676777;83;20138;-74
2022/07/19 03:45:02;;;;;;;;;;;;;;;17.29;51.24;101109.59;1712484;83;20210;-74
2022/07/19 03:47:28;;;;;;;;;;;;;;;17.51;51.34;101104.98;1712951;83;20898;-74
2022/07/19 03:49:54;;;;;;;;;;;;;;;17.79;51.26;101102.27;1713582;83;20160;-74
2022/07/19 03:52:20;;;;;;;;;;;;;;;17.78;51.13;101101.94;1707975;83;21172;-74
2022/07/19 03:54:46;;;;;;;;;;;;;;;17.72;51.22;101101.41;1706316;83;20223;-74
2022/07/19 03:57:11;;;;;;;;;;;;;;;17.68;51.33;101097.43;1703326;82;20235;-74
2022/07/19 03:59:37;;;;;;;;;;;;;;;17.67;51.44;101101.98;1710549;83;20160;-74
2022/07/19 04:02:03;;;;;;;;;;;;;;;17.69;51.53;101101.80;1714082;83;20822;-74
2022/07/19 04:04:29;;;;;;;;;;;;;;;17.75;51.55;101105.05;1713390;83;21091;-74
2022/07/19 04:06:55;;;;;;;;;;;;;;;17.78;51.58;101099.25;1716394;83;20250;-74
2022/07/19 04:09:21;;;;;;;;;;;;;;;17.81;51.60;101092.94;1713384;83;20882;-74
2022/07/19 04:11:46;;;;;;;;;;;;;;;17.82;51.64;101099.17;1703204;83;20290;-74
2022/07/19 04:14:12;;;;;;;;;;;;;;;17.91;51.75;101093.91;1718313;83;20172;-74
2022/07/19 04:16:38;;;;;;;;;;;;;;;18.08;51.87;101089.85;1703226;83;21273;-74
2022/07/19 04:19:04;;;;;;;;;;;;;;;19.06;52.00;101091.09;1717077;83;20191;-74
2022/07/19 04:21:30;;;;;;;;;;;;;;;19.52;51.47;101100.03;1703693;83;20158;-74
2022/07/19 04:23:56;;;;;;;;;;;;;;;19.67;51.15;101103.83;1716711;83;20144;-74
2022/07/19 04:26:21;;;;;;;;;;;;;;;19.72;51.31;101104.03;1701892;83;20501;-74
2022/07/19 04:28:47;;;;;;;;;;;;;;;20.80;51.29;101116.66;1717656;83;21996;-74
2022/07/19 04:31:14;;;;;;;;;;;;;;;22.07;50.74;101103.38;1718535;83;20199;-74
2022/07/19 04:33:40;;;;;;;;;;;;;;;23.00;49.92;101098.31;1720446;83;20161;-74
2022/07/19 04:36:06;;;;;;;;;;;;;;;23.67;49.21;101094.21;1717873;83;20168;-74
2022/07/19 04:38:32;;;;;;;;;;;;;;;24.42;48.53;101099.58;1707359;83;20188;-75
2022/07/19 04:40:58;;;;;;;;;;;;;;;25.10;47.64;101091.80;1711196;82;21709;-75
2022/07/19 04:43:24;;;;;;;;;;;;;;;25.31;46.65;101094.61;1717551;83;20242;-75
2022/07/19 04:45:50;;;;;;;;;;;;;;;25.26;46.30;101095.88;1701527;83;20758;-75
2022/07/19 04:48:16;;;;;;;;;;;;;;;24.98;46.24;101091.88;1713804;83;20613;-75
2022/07/19 04:50:42;;;;;;;;;;;;;;;24.66;46.35;101093.49;1710483;83;20198;-75
2022/07/19 04:53:08;;;;;;;;;;;;;;;24.67;46.37;101094.59;1712731;83;21593;-75
2022/07/19 04:55:36;;;;;;;;;;;;;;;24.65;46.25;101102.20;1717326;82;20266;-75
2022/07/19 04:58:02;;;;;;;;;;;;;;;24.74;46.08;101102.62;1706842;83;20157;-75
2022/07/19 05:00:28;;;;;;;;;;;;;;;24.97;45.88;101107.16;1717520;83;20664;-75
2022/07/19 05:02:54;;;;;;;;;;;;;;;25.30;45.68;101109.33;1702082;83;20179;-75
2022/07/19 05:05:20;;;;;;;;;;;;;;;25.75;45.38;101101.56;1718297;83;21825;-76
2022/07/19 05:07:47;;;;;;;;;;;;;;;26.05;44.95;101103.84;1716405;83;20152;-76
2022/07/19 05:10:12;;;;;;;;;;;;;;;26.27;44.60;101091.85;1716858;83;20136;-76
2022/07/19 05:12:39;;;;;;;;;;;;;;;26.56;44.47;101092.44;1718356;83;21498;-76
2022/07/19 05:15:06;;;;;;;;;;;;;;;26.84;44.11;101090.53;1717684;83;20455;-76
2022/07/19 05:17:32;;;;;;;;;;;;;;;26.90;43.86;101094.41;1718214;83;21976;-76
2022/07/19 05:19:57;;;;;;;;;;;;;;;27.12;43.61;101093.78;1718084;83;20179;-76
2022/07/19 05:22:24;;;;;;;;;;;;;;;27.26;43.08;101089.51;1702137;83;20271;-76
2022/07/19 05:24:51;;;;;;;;;;;;;;;27.37;42.62;101093.69;1717434;83;20651;-76
2022/07/19 05:27:17;;;;;;;;;;;;;;;27.33;42.00;101088.45;1718477;83;20152;-76
2022/07/19 05:29:43;;;;;;;;;;;;;;;27.48;41.65;101088.59;1696923;83;21773;-76
2022/07/19 05:32:09;;;;;;;;;;;;;;;27.51;40.98;101088.88;1718792;83;20819;-76
2022/07/19 05:34:35;;;;;;;;;;;;;;;27.53;40.54;101083.12;1717593;83;20763;-76
2022/07/19 05:37:01;;;;;;;;;;;;;;;27.68;40.14;101084.58;1714638;83;20649;-76
2022/07/19 05:39:26;;;;;;;;;;;;;;;27.78;39.68;101085.45;1717632;83;20239;-76
2022/07/19 05:41:52;;;;;;;;;;;;;;;27.69;39.16;101082.13;1709596;83;21724;-77
2022/07/19 05:44:18;;;;;;;;;;;;;;;27.86;39.01;101073.16;1717331;83;20187;-77
2022/07/19 05:46:44;;;;;;;;;;;;;;;28.26;38.62;101074.69;1704228;83;20235;-77
2022/07/19 05:49:11;;;;;;;;;;;;;;;28.56;38.37;101068.99;1714159;83;20744;-77
2022/07/19 05:51:36;;;;;;;;;;;;;;;28.80;38.06;101076.17;1717623;82;20159;-77
2022/07/19 05:54:03;;;;;;;;;;;;;;;28.98;37.49;101081.13;1706044;83;21869;-77
2022/07/19 05:56:29;;;;;;;;;;;;;;;28.89;37.20;101079.47;1715969;83;20097;-77
2022/07/19 05:58:55;;;;;;;;;;;;;;;29.11;36.97;101081.39;1717671;83;20211;-77
2022/07/19 06:01:23;;;;;;;;;;;;;;;29.12;36.64;101080.30;1713990;83;20705;-77
2022/07/19 06:03:57;;;;;;;;;;;;;;;29.10;36.42;101079.73;1716937;83;20160;-77
2022/07/19 06:06:24;;;;;;;;;;;;;;;29.21;36.10;101075.88;1710531;83;22014;-77
2022/07/19 06:08:49;;;;;;;;;;;;;;;29.20;35.89;101074.22;1715325;83;20789;-77
2022/07/19 06:11:16;;;;;;;;;;;;;;;29.07;35.55;101074.80;1711501;82;20300;-77
2022/07/19 06:13:42;;;;;;;;;;;;;;;29.00;35.35;101072.88;1712393;83;21329;-77
2022/07/19 06:16:08;;;;;;;;;;;;;;;28.99;35.10;101079.45;1710887;83;20441;-77
2022/07/19 06:18:34;;;;;;;;;;;;;;;28.89;34.74;101076.72;1710363;83;21882;-77
2022/07/19 06:21:01;;;;;;;;;;;;;;;28.94;34.63;101072.61;1708270;83;20799;-77
2022/07/19 06:23:27;;;;;;;;;;;;;;;28.88;34.32;101076.47;1712625;83;20145;-77
2022/07/19 06:25:53;;;;;;;;;;;;;;;29.00;34.31;101077.00;1706911;83;20677;-77
2022/07/19 06:28:19;;;;;;;;;;;;;;;29.01;34.08;101080.57;1698450;83;20170;-77
2022/07/19 06:30:45;;;;;;;;;;;;;;;29.01;33.95;101078.66;1710953;83;22525;-77
2022/07/19 06:33:11;;;;;;;;;;;;;;;29.07;33.75;101084.41;1709610;83;20195;-77
2022/07/19 06:35:36;;;;;;;;;;;;;;;28.98;33.46;101079.75;1711540;83;21098;-77
2022/07/19 06:38:02;;;;;;;;;;;;;;;28.93;33.37;101081.94;1705089;83;20346;-77
2022/07/19 06:40:28;;;;;;;;;;;;;;;29.13;33.34;101081.92;1705202;83;20203;-77
2022/07/19 06:42:54;;;;;;;;;;;;;;;29.18;33.13;101081.93;1700567;83;21762;-77
2022/07/19 06:45:20;;;;;;;;;;;;;;;29.20;33.05;101082.46;1705730;82;20212;-77
2022/07/19 06:47:46;;;;;;;;;;;;;;;29.27;32.91;101078.66;1711962;83;20256;-77
2022/07/19 06:50:11;;;;;;;;;;;;;;;29.39;32.78;101081.92;1712372;83;21400;-77
2022/07/19 06:52:37;;;;;;;;;;;;;;;29.34;32.60;101077.83;1693635;83;20174;-77
2022/07/19 06:55:04;;;;;;;;;;;;;;;29.39;32.49;101080.55;1711833;83;22344;-77
2022/07/19 06:57:29;;;;;;;;;;;;;;;29.57;32.49;101079.96;1712314;83;20829;-77
2022/07/19 06:59:55;;;;;;;;;;;;;;;29.81;32.38;101073.27;1710834;82;20384;-77
2022/07/19 07:02:21;;;;;;;;;;;;;;;29.81;32.20;101075.48;1713576;83;20703;-77
2022/07/19 07:04:47;;;;;;;;;;;;;;;29.98;32.19;101077.36;1711536;82;20168;-77
2022/07/19 07:07:13;;;;;;;;;;;;;;;30.19;32.13;101078.08;1713083;83;21747;-77
2022/07/19 07:09:39;;;;;;;;;;;;;;;30.29;32.02;101075.84;1712947;83;20156;-77
2022/07/19 07:12:05;;;;;;;;;;;;;;;30.38;31.92;101075.50;1711746;83;20183;-77
2022/07/19 07:14:31;;;;;;;;;;;;;;;30.45;31.85;101078.79;1708547;83;22260;-77
2022/07/19 07:16:57;;;;;;;;;;;;;;;30.60;31.70;101078.70;1713036;83;20251;-77
2022/07/19 07:19:23;;;;;;;;;;;;;;;30.65;31.66;101073.13;1713616;83;21853;-77
2022/07/19 07:21:49;;;;;;;;;;;;;;;30.83;31.54;101077.13;1713753;83;20585;-77
2022/07/19 07:24:15;;;;;;;;;;;;;;;30.95;31.39;101077.04;1712976;83;20183;-77
2022/07/19 07:26:41;;;;;;;;;;;;;;;30.92;31.20;101073.48;1712065;83;20658;-77
2022/07/19 07:29:06;;;;;;;;;;;;;;;30.95;31.14;101072.91;1714793;83;20748;-78
2022/07/19 07:31:32;;;;;;;;;;;;;;;31.02;31.00;101078.94;1712427;83;21832;-77
2022/07/19 07:33:58;;;;;;;;;;;;;;;30.95;30.77;101084.48;1709253;83;20275;-78
2022/07/19 07:36:24;;;;;;;;;;;;;;;30.90;30.59;101082.58;1713421;83;20275;-77
2022/07/19 07:38:50;;;;;;;;;;;;;;;30.86;30.45;101081.51;1686754;83;21442;-77
2022/07/19 07:41:15;;;;;;;;;;;;;;;30.87;30.32;101081.78;1706700;82;20243;-78
2022/07/19 07:43:41;;;;;;;;;;;;;;;30.79;29.96;101081.59;1706283;82;21782;-78
2022/07/19 07:46:07;;;;;;;;;;;;;;;30.78;29.95;101080.77;1711345;82;20759;-77
2022/07/19 07:48:33;;;;;;;;;;;;;;;30.79;29.74;101078.26;1706834;83;20290;-78
2022/07/19 07:50:59;;;;;;;;;;;;;;;31.00;29.76;101080.35;1712955;83;20716;-78
2022/07/19 07:53:25;;;;;;;;;;;;;;;31.05;29.59;101081.66;1710183;83;20200;-78
2022/07/19 07:55:51;;;;;;;;;;;;;;;31.16;29.50;101083.22;1702239;83;21817;-78
2022/07/19 07:58:16;;;;;;;;;;;;;;;31.25;29.45;101083.39;1709919;83;20772;-78
2022/07/19 08:00:42;;;;;;;;;;;;;;;31.35;29.33;101086.08;1709043;83;20219;-78
2022/07/19 08:03:09;;;;;;;;;;;;;;;31.37;29.20;101074.19;1713034;83;20674;-78
2022/07/19 08:05:35;;;;;;;;;;;;;;;31.40;29.15;101081.88;1705704;82;20424;-78
2022/07/19 08:08:01;;;;;;;;;;;;;;;31.44;29.01;101078.80;1699100;82;21849;-78
2022/07/19 08:10:28;;;;;;;;;;;;;;;31.58;28.94;101079.78;1714307;83;20124;-79
2022/07/19 08:12:54;;;;;;;;;;;;;;;31.67;28.90;101082.14;1717364;83;20200;-78
2022/07/19 08:15:20;;;;;;;;;;;;;;;31.79;28.75;101084.50;1717900;83;20380;-78
2022/07/19 08:17:46;;;;;;;;;;;;;;;31.83;28.53;101085.01;1705950;83;20254;-77
2022/07/19 08:20:12;;;;;;;;;;;;;;;31.84;28.36;101081.69;1716251;83;22506;-78
2022/07/19 08:22:37;;;;;;;;;;;;;;;31.99;28.28;101080.10;1712871;83;20250;-78
2022/07/19 08:25:04;;;;;;;;;;;;;;;32.02;28.09;101083.09;1716256;83;20307;-78
2022/07/19 08:27:30;;;;;;;;;;;;;;;32.06;28.00;101078.66;1713734;83;20746;-78
2022/07/19 08:29:55;;;;;;;;;;;;;;;32.13;27.90;101074.97;1717093;82;20211;-78
2022/07/19 08:32:21;;;;;;;;;;;;;;;32.08;27.68;101075.06;1717553;83;21856;-78
2022/07/19 08:34:47;;;;;;;;;;;;;;;32.14;27.60;101075.24;1716056;83;20262;-78
2022/07/19 08:37:13;;;;;;;;;;;;;;;32.32;27.45;101075.55;1715050;83;20801;-79
2022/07/19 08:39:39;;;;;;;;;;;;;;;32.40;27.38;101076.27;1715906;83;20626;-78
2022/07/19 08:42:05;;;;;;;;;;;;;;;32.42;27.24;101076.78;1716732;83;20155;-78
2022/07/19 08:44:31;;;;;;;;;;;;;;;32.56;27.24;101070.77;1711256;83;21822;-79
2022/07/19 08:46:56;;;;;;;;;;;;;;;32.62;27.11;101079.25;1715908;83;20183;-78
2022/07/19 08:49:22;;;;;;;;;;;;;;;32.54;26.93;101068.88;1713670;82;20262;-79
2022/07/19 08:51:48;;;;;;;;;;;;;;;32.75;27.01;101059.17;1716682;83;21260;-79
2022/07/19 08:54:15;;;;;;;;;;;;;;;32.83;26.87;101066.75;1704939;82;20200;-79
2022/07/19 08:59:25;;;;;;;;;;;;;;;32.82;26.72;101051.31;1704604;83;20160;-79
2022/07/19 09:01:51;;;;;;;;;;;;;;;32.83;26.70;101050.76;1715602;82;20513;-80
2022/07/19 09:04:19;;;;;;;;;;;;;;;32.83;26.54;101052.94;1714420;83;20602;-80
2022/07/19 09:06:48;;;;;;;;;;;;;;;32.89;26.58;101049.55;1709078;82;20520;-79
2022/07/19 09:09:16;;;;;;;;;;;;;;;33.06;26.44;101054.76;1712363;83;21739;-80
2022/07/19 09:11:50;;;;;;;;;;;;;;;33.11;26.21;101053.30;1706499;83;20417;-79
2022/07/19 09:14:22;;;;;;;;;;;;;;;32.99;26.09;101058.48;1707071;83;20101;-79
2022/07/19 09:16:57;;;;;;;;;;;;;;;33.14;26.15;101056.83;1711390;83;20662;-79
2022/07/19 09:19:24;;;;;;;;;;;;;;;33.28;25.96;101054.67;1708741;82;20131;-80
2022/07/19 09:22:05;;;;;;;;;;;;;;;33.27;25.77;101055.79;1702656;83;21884;-79
2022/07/19 09:24:33;;;;;;;;;;;;;;;33.13;25.72;101051.06;1703658;82;20191;-79
2022/07/19 09:27:01;;;;;;;;;;;;;;;33.29;25.75;101054.91;1695027;83;20183;-79
2022/07/19 09:29:27;;;;;;;;;;;;;;;33.30;25.57;101052.41;1705919;83;20665;-79
2022/07/19 09:32:08;;;;;;;;;;;;;;;33.26;25.59;101055.52;1708179;82;20183;-79
2022/07/19 09:34:35;;;;;;;;;;;;;;;33.12;25.40;101044.45;1710651;83;21856;-79
2022/07/19 09:37:13;;;;;;;;;;;;;;;33.11;25.33;101042.80;1711914;82;20160;-79
2022/07/19 09:39:41;;;;;;;;;;;;;;;33.09;25.11;101045.85;1699324;82;20120;-79
2022/07/19 09:42:11;;;;;;;;;;;;;;;33.08;25.09;101042.82;1711011;83;20690;-79
2022/07/19 09:44:37;;;;;;;;;;;;;;;32.97;24.97;101042.73;1706302;83;20434;-79
2022/07/19 09:47:03;;;;;;;;;;;;;;;32.87;24.94;101033.80;1708088;82;21889;-79
2022/07/19 09:49:29;;;;;;;;;;;;;;;32.96;24.93;101037.53;1706319;82;20859;-79
2022/07/19 09:51:55;;;;;;;;;;;;;;;32.97;24.85;101030.89;1694204;83;20756;-79
2022/07/19 09:54:25;;;;;;;;;;;;;;;32.98;24.80;101034.72;1702495;82;21468;-79
2022/07/19 09:56:52;;;;;;;;;;;;;;;32.83;24.79;101031.41;1709721;83;20709;-79
2022/07/19 09:59:18;;;;;;;;;;;;;;;32.81;24.80;101028.94;1714395;83;22405;-79
2022/07/19 10:01:46;;;;;;;;;;;;;;;32.95;24.82;101027.59;1712339;82;20828;-79
2022/07/19 10:04:13;;;;;;;;;;;;;;;33.00;24.80;101029.72;1702252;83;20738;-79
2022/07/19 10:06:40;;;;;;;;;;;;;;;33.08;24.77;101030.37;1690337;83;21310;-79
2022/07/19 10:09:07;;;;;;;;;;;;;;;33.02;24.70;101026.08;1713666;83;20562;-79
2022/07/19 10:11:33;;;;;;;;;;;;;;;33.02;24.69;101023.31;1702572;83;21398;-79
2022/07/19 10:13:59;;;;;;;;;;;;;;;32.84;24.49;101015.89;1707407;82;20144;-79
2022/07/19 10:16:41;;;;;;;;;;;;;;;32.94;24.52;101021.23;1716734;83;20767;-79
2022/07/19 10:19:30;;;;;;;;;;;;;;;33.09;24.55;101026.50;1661497;83;20632;-77
2022/07/19 10:21:56;;;;;;;;;;;;;;;33.02;24.44;101020.55;1716890;82;20432;-79
2022/07/19 10:24:40;;;;;;;;;;;;;;;33.17;24.41;101021.42;1703855;83;21852;-79
2022/07/19 10:27:06;;;;;;;;;;;;;;;33.26;24.35;101016.81;1717448;83;20567;-79
2022/07/19 10:29:32;;;;;;;;;;;;;;;33.28;24.22;101020.93;1716371;83;20280;-79
2022/07/19 10:32:05;;;;;;;;;;;;;;;33.17;23.96;101015.33;1716689;83;21404;-79
2022/07/19 10:34:31;;;;;;;;;;;;;;;33.13;24.00;101019.27;1716415;83;20196;-79
2022/07/19 10:36:57;;;;;;;;;;;;;;;33.22;23.92;101015.78;1713618;82;21880;-78
2022/07/19 10:39:31;;;;;;;;;;;;;;;33.25;23.88;101014.60;1717494;83;20195;-79
2022/07/19 10:42:09;;;;;;;;;;;;;;;33.24;23.91;101012.16;1717808;83;20201;-79
2022/07/19 10:44:37;;;;;;;;;;;;;;;33.23;23.85;101004.98;1715732;83;20595;-79
2022/07/19 10:47:03;;;;;;;;;;;;;;;33.21;23.79;101007.25;1706770;83;20491;-79
2022/07/19 10:49:45;;;;;;;;;;;;;;;33.11;23.71;101002.15;1716828;83;22431;-79
2022/07/19 10:52:31;;;;;;;;;;;;;;;33.07;23.79;101005.27;1711834;83;20234;-79
2022/07/19 10:55:22;;;;;;;;;;;;;;;33.09;23.76;100995.27;1694441;83;20136;-79
2022/07/19 10:58:09;;;;;;;;;;;;;;;33.03;23.74;100996.49;1717305;83;20567;-80
2022/07/19 11:00:46;;;;;;;;;;;;;;;33.11;23.65;100993.03;1713804;83;20627;-80
2022/07/19 11:03:25;;;;;;;;;;;;;;;33.28;23.65;100999.36;1708278;83;21718;-79
2022/07/19 11:05:53;;;;;;;;;;;;;;;33.32;23.43;100994.27;1703757;83;20181;-79
2022/07/19 11:08:33;;;;;;;;;;;;;;;33.25;23.50;100988.92;1716864;83;20172;-79
2022/07/19 11:11:06;;;;;;;;;;;;;;;33.28;23.41;100985.53;1717005;83;21358;-79
2022/07/19 11:13:33;;;;;;;;;;;;;;;33.24;23.49;100976.21;1717302;83;20168;-79
2022/07/19 11:15:59;;;;;;;;;;;;;;;33.32;23.45;100976.89;1714346;83;21786;-79
2022/07/19 11:18:25;;;;;;;;;;;;;;;33.36;23.40;100975.94;1698593;83;20750;-79
2022/07/19 11:20:50;;;;;;;;;;;;;;;33.28;23.34;100975.86;1717394;83;20195;-79
2022/07/19 11:23:17;;;;;;;;;;;;;;;33.32;23.37;100981.04;1712828;83;20621;-80
2022/07/19 11:25:43;;;;;;;;;;;;;;;33.42;23.29;100976.67;1709677;82;20192;-79
2022/07/19 11:28:22;;;;;;;;;;;;;;;33.50;23.27;100971.22;1716609;83;22410;-79
2022/07/19 11:30:48;;;;;;;;;;;;;;;33.49;23.23;100967.40;1716126;83;20168;-79
2022/07/19 11:33:16;;;;;;;;;;;;;;;33.46;23.22;100966.05;1714586;83;20540;-79
2022/07/19 11:35:59;;;;;;;;;;;;;;;33.58;23.22;100961.38;1713451;83;20690;-79
2022/07/19 11:38:39;;;;;;;;;;;;;;;33.59;23.17;100954.73;1714769;83;20240;-79
2022/07/19 11:41:17;;;;;;;;;;;;;;;33.66;23.15;100954.34;1714843;82;22552;-79
2022/07/19 11:43:55;;;;;;;;;;;;;;;33.79;23.13;100951.53;1716022;83;20187;-80
2022/07/19 11:46:22;;;;;;;;;;;;;;;33.72;22.85;100940.63;1709618;83;20158;-78
2022/07/19 11:48:48;;;;;;;;;;;;;;;33.62;22.75;100860.89;1684275;85;20639;-79
2022/07/19 11:51:14;;;;;;;;;;;;;;;33.61;22.39;100934.47;1690690;83;20181;-79
2022/07/19 11:53:40;;;;;;;;;;;;;;;33.53;22.55;100931.87;1707323;83;22492;-79
2022/07/19 11:56:08;;;;;;;;;;;;;;;33.58;22.64;100939.25;1695113;84;21025;-79
2022/07/19 11:58:34;;;;;;;;;;;;;;;33.58;22.74;100926.80;1686730;82;20376;-79
2022/07/19 12:01:04;;;;;;;;;;;;;;;33.47;22.70;100930.91;1720862;82;20735;-79
2022/07/19 12:03:30;;;;;;;;;;;;;;;33.30;22.70;100927.41;1720127;82;20193;-79
2022/07/19 12:06:04;;;;;;;;;;;;;;;33.19;22.73;100930.12;1724945;82;21918;-79
2022/07/19 12:08:43;;;;;;;;;;;;;;;33.15;22.68;100924.38;1717098;82;20448;-79
2022/07/19 12:11:20;;;;;;;;;;;;;;;33.09;22.69;100928.35;1747981;81;20161;-79
2022/07/19 12:13:47;;;;;;;;;;;;;;;33.08;22.75;100923.94;1729485;81;20763;-79
2022/07/19 12:16:13;;;;;;;;;;;;;;;33.07;22.69;100927.03;1715162;83;20112;-79
2022/07/19 12:18:45;;;;;;;;;;;;;;;33.06;22.70;100928.97;1730787;81;21816;-79
2022/07/19 12:21:24;;;;;;;;;;;;;;;33.11;22.74;100923.36;1726966;83;20809;-79
2022/07/19 12:24:20;;;;;;;;;;;;;;;33.25;22.76;100918.41;1719544;83;20164;-80
2022/07/19 12:26:57;;;;;;;;;;;;;;;33.14;22.63;100915.83;1724011;83;20624;-79
2022/07/19 12:29:28;;;;;;;;;;;;;;;33.08;22.50;100914.27;1726678;81;20147;-79
2022/07/19 12:31:57;;;;;;;;;;;;;;;33.09;22.50;100917.30;1726353;83;22691;-79
2022/07/19 12:34:23;;;;;;;;;;;;;;;33.13;22.44;100915.59;1723867;83;20140;-79
2022/07/19 12:36:49;;;;;;;;;;;;;;;33.22;22.48;100913.47;1727394;83;20771;-79
2022/07/19 12:39:23;;;;;;;;;;;;;;;33.40;22.49;100918.06;1728902;83;21426;-79
2022/07/19 12:41:57;;;;;;;;;;;;;;;33.50;22.42;100904.83;1713101;83;20142;-79